createdAt,value
2019-02-16T00:00:45.228Z,12.20
2019-02-16T00:03:22.715Z,11.87
2019-02-16T00:05:58.065Z,12.57
2019-02-16T00:08:33.388Z,11.47
2019-02-16T00:11:08.730Z,10.43
2019-02-16T00:13:44.070Z,11.70
2019-02-16T00:16:20.019Z,11.73
2019-02-16T00:18:56.770Z,10.90
2019-02-16T00:21:31.362Z,11.83
2019-02-16T00:24:08.112Z,11.40
2019-02-16T00:26:43.161Z,11.33
2019-02-16T00:29:19.915Z,11.70
2019-02-16T00:31:54.950Z,12.63
2019-02-16T00:34:32.165Z,10.83
2019-02-16T00:37:10.965Z,10.40
2019-02-16T00:39:49.586Z,10.80
2019-02-16T00:42:25.646Z,10.60
2019-02-16T00:45:01.621Z,12.23
2019-02-16T00:47:37.540Z,11.33
2019-02-16T00:50:19.954Z,11.17
2019-02-16T00:52:54.982Z,11.43
2019-02-16T00:55:31.773Z,11.67
2019-02-16T00:58:07.217Z,11.30
2019-02-16T01:00:44.609Z,10.67
2019-02-16T01:03:20.062Z,10.93
2019-02-16T01:05:55.507Z,10.27
2019-02-16T01:08:30.850Z,10.63
2019-02-16T01:11:05.561Z,10.03
2019-02-16T01:13:40.729Z,10.97
2019-02-16T01:16:15.419Z,11.20
2019-02-16T01:18:50.298Z,10.73
2019-02-16T01:21:25.622Z,11.87
2019-02-16T01:24:00.948Z,11.00
2019-02-16T01:26:35.960Z,11.03
2019-02-16T01:29:11.239Z,11.57
2019-02-16T01:31:46.281Z,11.83
2019-02-16T01:34:21.294Z,12.33
2019-02-16T01:36:56.330Z,12.13
2019-02-16T01:39:31.345Z,11.67
2019-02-16T01:42:07.179Z,11.50
2019-02-16T01:44:42.186Z,11.13
2019-02-16T01:47:17.497Z,12.87
2019-02-16T01:49:52.528Z,12.63
2019-02-16T01:52:27.801Z,12.77
2019-02-16T01:55:02.818Z,12.53
2019-02-16T01:57:38.851Z,13.23
2019-02-16T02:00:13.890Z,12.43
2019-02-16T02:02:48.915Z,12.93
2019-02-16T02:05:23.946Z,12.00
2019-02-16T02:07:59.082Z,12.70
2019-02-16T02:10:34.204Z,11.83
2019-02-16T02:13:09.238Z,12.80
2019-02-16T02:15:44.273Z,11.10
2019-02-16T02:18:19.316Z,10.97
2019-02-16T02:20:54.439Z,11.03
2019-02-16T02:23:29.463Z,12.20
2019-02-16T02:26:04.773Z,11.47
2019-02-16T02:28:39.847Z,11.37
2019-02-16T02:31:14.858Z,9.77
2019-02-16T02:33:50.184Z,10.67
2019-02-16T02:36:26.540Z,10.70
2019-02-16T02:39:01.574Z,12.67
2019-02-16T02:41:38.218Z,10.30
2019-02-16T02:44:14.227Z,10.73
2019-02-16T02:46:49.260Z,10.73
2019-02-16T02:49:24.274Z,11.20
2019-02-16T02:51:59.637Z,10.67
2019-02-16T02:54:34.677Z,9.57
2019-02-16T02:57:09.455Z,8.73
2019-02-16T02:59:44.680Z,10.27
2019-02-16T03:02:19.899Z,9.57
2019-02-16T03:04:54.967Z,13.17
2019-02-16T03:07:29.612Z,11.40
2019-02-16T03:10:05.770Z,10.83
2019-02-16T03:12:42.429Z,9.37
2019-02-16T03:15:18.454Z,9.83
2019-02-16T03:17:53.473Z,8.87
2019-02-16T03:20:28.481Z,9.07
2019-02-16T03:23:16.635Z,9.73
2019-02-16T03:26:14.210Z,9.00
2019-02-16T03:28:51.523Z,9.07
2019-02-16T03:31:36.399Z,9.00
2019-02-16T03:34:27.878Z,11.83
2019-02-16T03:37:26.781Z,9.63
2019-02-16T03:40:02.195Z,9.03
2019-02-16T03:42:37.269Z,9.60
2019-02-16T03:45:12.294Z,9.33
2019-02-16T03:47:47.320Z,10.03
2019-02-16T03:50:22.368Z,9.43
2019-02-16T03:52:57.703Z,10.47
2019-02-16T03:55:32.415Z,10.10
2019-02-16T03:58:07.324Z,9.27
2019-02-16T04:00:42.366Z,10.80
2019-02-16T04:03:17.442Z,10.17
2019-02-16T04:05:52.771Z,10.33
2019-02-16T04:08:28.118Z,11.20
2019-02-16T04:11:04.108Z,10.47
2019-02-16T04:13:39.133Z,9.77
2019-02-16T04:16:14.556Z,9.07
2019-02-16T04:18:49.894Z,9.77
2019-02-16T04:21:25.008Z,9.53
2019-02-16T04:24:00.349Z,9.40
2019-02-16T04:26:36.434Z,10.77
2019-02-16T04:29:11.572Z,9.53
2019-02-16T04:31:46.672Z,9.30
2019-02-16T04:34:23.960Z,9.53
2019-02-16T04:36:58.667Z,10.27
2019-02-16T04:39:33.766Z,9.10
2019-02-16T04:42:08.992Z,9.47
2019-02-16T04:44:43.943Z,9.30
2019-02-16T04:47:19.416Z,9.67
2019-02-16T04:49:54.702Z,9.50
2019-02-16T04:52:34.882Z,8.80
2019-02-16T04:55:07.550Z,9.43
2019-02-16T04:57:42.569Z,10.20
2019-02-16T05:00:18.271Z,9.60
2019-02-16T05:02:53.318Z,10.27
2019-02-16T05:05:28.347Z,10.53
2019-02-16T05:08:03.476Z,10.43
2019-02-16T05:10:39.509Z,9.27
2019-02-16T05:13:14.528Z,8.90
2019-02-16T05:15:49.571Z,9.80
2019-02-16T05:18:25.027Z,10.03
2019-02-16T05:21:01.063Z,9.53
2019-02-16T05:23:36.146Z,9.00
2019-02-16T05:26:12.163Z,9.20
2019-02-16T05:28:47.187Z,9.47
2019-02-16T05:31:22.322Z,9.30
2019-02-16T05:33:57.337Z,9.73
2019-02-16T05:36:32.372Z,9.87
2019-02-16T05:39:07.388Z,9.50
2019-02-16T05:41:42.415Z,9.33
2019-02-16T05:44:17.729Z,9.20
2019-02-16T05:46:52.766Z,9.70
2019-02-16T05:49:27.801Z,9.43
2019-02-16T05:52:03.146Z,9.03
2019-02-16T05:54:40.133Z,9.27
2019-02-16T05:57:15.195Z,8.93
2019-02-16T05:59:49.974Z,9.07
2019-02-16T06:02:24.738Z,10.00
2019-02-16T06:04:59.983Z,9.37
2019-02-16T06:07:35.311Z,9.03
2019-02-16T06:10:10.917Z,9.03
2019-02-16T06:12:46.302Z,8.87
2019-02-16T06:15:21.986Z,9.30
2019-02-16T06:17:57.742Z,10.03
2019-02-16T06:20:33.317Z,9.27
2019-02-16T06:23:09.755Z,8.80
2019-02-16T06:25:45.319Z,9.87
2019-02-16T06:28:20.974Z,9.73
2019-02-16T06:30:56.030Z,9.10
2019-02-16T06:33:31.388Z,10.50
2019-02-16T06:36:08.982Z,9.90
2019-02-16T06:38:44.026Z,9.13
2019-02-16T06:41:19.467Z,10.57
2019-02-16T06:43:54.814Z,9.20
2019-02-16T06:46:29.820Z,10.03
2019-02-16T06:49:06.601Z,9.63
2019-02-16T06:51:42.569Z,9.23
2019-02-16T06:54:19.450Z,9.27
2019-02-16T06:57:02.681Z,8.10
2019-02-16T06:59:37.725Z,8.13
2019-02-16T07:02:14.957Z,8.30
2019-02-16T07:04:50.247Z,8.23
2019-02-16T07:07:25.375Z,9.20
2019-02-16T07:10:01.360Z,8.87
2019-02-16T07:12:36.512Z,7.93
2019-02-16T07:15:11.466Z,8.53
2019-02-16T07:17:48.583Z,8.87
2019-02-16T07:20:24.030Z,8.17
2019-02-16T07:22:59.055Z,8.87
2019-02-16T07:25:35.774Z,7.53
2019-02-16T07:28:13.766Z,8.90
2019-02-16T07:30:49.091Z,7.87
2019-02-16T07:33:24.546Z,9.00
2019-02-16T07:36:00.510Z,8.90
2019-02-16T07:38:36.157Z,9.03
2019-02-16T07:41:11.041Z,8.70
2019-02-16T07:43:50.847Z,8.03
2019-02-16T07:46:34.564Z,8.67
2019-02-16T07:49:24.057Z,8.67
2019-02-16T07:52:07.278Z,8.43
2019-02-16T07:54:45.174Z,8.73
2019-02-16T07:57:27.733Z,9.43
2019-02-16T08:00:04.473Z,8.73
2019-02-16T08:02:55.565Z,8.33
2019-02-16T08:05:41.675Z,8.37
2019-02-16T08:08:25.920Z,7.53
2019-02-16T08:11:03.014Z,9.37
2019-02-16T08:13:39.979Z,8.37
2019-02-16T08:16:24.418Z,8.80
2019-02-16T08:19:07.981Z,8.43
2019-02-16T08:21:55.341Z,8.70
2019-02-16T08:24:39.074Z,8.30
2019-02-16T08:27:35.200Z,8.73
2019-02-16T08:30:11.840Z,7.47
2019-02-16T08:32:48.538Z,8.50
2019-02-16T08:35:29.134Z,8.63
2019-02-16T08:38:06.989Z,9.50
2019-02-16T08:40:43.863Z,10.03
2019-02-16T08:43:23.314Z,8.87
2019-02-16T08:46:11.867Z,9.60
2019-02-16T08:48:56.338Z,9.77
2019-02-16T08:51:33.515Z,8.63
2019-02-16T08:54:11.660Z,8.73
2019-02-16T08:56:48.516Z,7.73
2019-02-16T08:59:34.439Z,9.03
2019-02-16T09:02:22.325Z,9.37
2019-02-16T09:05:02.305Z,9.40
2019-02-16T09:07:53.439Z,11.13
2019-02-16T09:10:30.078Z,8.47
2019-02-16T09:13:10.166Z,9.17
2019-02-16T09:16:01.761Z,9.27
2019-02-16T09:18:38.382Z,8.63
2019-02-16T09:21:28.923Z,8.07
2019-02-16T09:24:05.947Z,7.70
2019-02-16T09:26:50.103Z,8.50
2019-02-16T09:29:26.790Z,6.70
2019-02-16T09:32:22.818Z,7.63
2019-02-16T09:35:10.985Z,7.77
2019-02-16T09:37:47.327Z,6.77
2019-02-16T09:40:26.555Z,7.67
2019-02-16T09:43:10.533Z,6.47
2019-02-16T09:45:55.355Z,5.80
2019-02-16T09:48:42.251Z,8.97
2019-02-16T09:51:39.874Z,7.73
2019-02-16T09:54:27.817Z,6.00
2019-02-16T09:57:05.034Z,5.60
2019-02-16T09:59:45.026Z,7.47
2019-02-16T10:02:33.392Z,6.85
2019-02-16T10:05:21.493Z,6.70
2019-02-16T10:08:08.494Z,5.20
2019-02-16T10:11:05.953Z,6.10
2019-02-16T10:13:51.190Z,5.50
2019-02-16T10:16:30.869Z,5.90
2019-02-16T10:19:10.617Z,5.47
2019-02-16T10:21:51.843Z,4.67
2019-02-16T10:24:37.582Z,5.80
2019-02-16T10:27:14.803Z,5.80
2019-02-16T10:29:59.911Z,5.07
2019-02-16T10:32:55.315Z,4.23
2019-02-16T10:35:36.716Z,4.77
2019-02-16T10:38:24.767Z,4.53
2019-02-16T10:41:18.834Z,4.80
2019-02-16T10:43:58.303Z,4.43
2019-02-16T10:46:44.097Z,4.80
2019-02-16T10:49:25.424Z,6.73
2019-02-16T10:52:04.120Z,6.47
2019-02-16T10:54:50.946Z,7.77
2019-02-16T10:57:27.911Z,4.70
2019-02-16T11:00:17.761Z,5.22
2019-02-16T11:02:58.963Z,5.27
2019-02-16T11:05:42.838Z,5.65
2019-02-16T11:08:19.212Z,10.53
2019-02-16T11:11:04.570Z,6.37
2019-02-16T11:13:45.460Z,5.17
2019-02-16T11:16:45.230Z,5.35
2019-02-16T11:19:26.972Z,5.77
2019-02-16T11:22:05.264Z,5.00
2019-02-16T11:24:45.771Z,5.73
2019-02-16T11:27:29.212Z,4.97
2019-02-16T11:30:11.364Z,4.67
2019-02-16T11:32:51.647Z,4.47
2019-02-16T11:35:51.580Z,5.50
2019-02-16T11:38:28.411Z,8.30
2019-02-16T11:41:19.020Z,4.73
2019-02-16T11:44:07.007Z,5.40
2019-02-16T11:47:04.207Z,5.87
2019-02-16T11:49:47.132Z,6.87
2019-02-16T11:52:24.908Z,5.00
2019-02-16T11:55:21.531Z,5.00
2019-02-16T11:58:02.229Z,4.97
2019-02-16T12:00:57.063Z,5.57
2019-02-16T12:03:37.011Z,5.20
2019-02-16T12:06:15.851Z,5.07
2019-02-16T12:09:11.490Z,4.63
2019-02-16T12:12:11.324Z,3.83
2019-02-16T12:15:03.750Z,5.27
2019-02-16T12:17:43.617Z,6.63
2019-02-16T12:20:33.435Z,4.67
2019-02-16T12:23:15.792Z,6.30
2019-02-16T12:25:58.694Z,5.50
2019-02-16T12:28:36.161Z,5.10
2019-02-16T12:31:16.265Z,4.20
2019-02-16T12:34:06.723Z,4.27
2019-02-16T12:36:50.144Z,4.50
2019-02-16T12:39:27.339Z,4.73
2019-02-16T12:42:07.897Z,3.77
2019-02-16T12:44:44.711Z,5.00
2019-02-16T12:47:24.333Z,3.90
2019-02-16T12:50:07.758Z,7.83
2019-02-16T12:52:48.243Z,3.83
2019-02-16T12:55:35.695Z,4.17
2019-02-16T12:58:16.102Z,4.57
2019-02-16T13:00:58.166Z,4.30
2019-02-16T13:03:35.102Z,4.40
2019-02-16T13:06:32.026Z,3.67
2019-02-16T13:09:23.189Z,3.17
2019-02-16T13:12:00.249Z,3.60
2019-02-16T13:14:49.788Z,3.33
2019-02-16T13:17:29.747Z,3.43
2019-02-16T13:20:13.603Z,3.30
2019-02-16T13:23:07.875Z,3.87
2019-02-16T13:25:47.716Z,3.80
2019-02-16T13:28:43.860Z,3.53
2019-02-16T13:31:37.423Z,3.30
2019-02-16T13:34:20.587Z,3.27
2019-02-16T13:37:07.729Z,2.73
2019-02-16T13:39:51.232Z,2.87
2019-02-16T13:42:34.009Z,3.17
2019-02-16T13:45:18.279Z,2.97
2019-02-16T13:47:56.029Z,3.20
2019-02-16T13:50:35.648Z,3.17
2019-02-16T13:53:12.391Z,3.77
2019-02-16T13:55:50.113Z,2.93
2019-02-16T13:58:37.038Z,2.57
2019-02-16T14:01:13.810Z,4.00
2019-02-16T14:04:08.215Z,2.97
2019-02-16T14:06:47.778Z,2.43
2019-02-16T14:09:24.542Z,3.13
2019-02-16T14:12:04.529Z,3.37
2019-02-16T14:14:58.813Z,3.73
2019-02-16T14:17:36.567Z,4.03
2019-02-16T14:20:11.752Z,3.13
2019-02-16T14:22:47.027Z,3.53
2019-02-16T14:25:23.901Z,3.50
2019-02-16T14:28:00.077Z,2.87
2019-02-16T14:30:35.647Z,3.83
2019-02-16T14:33:11.387Z,2.93
2019-02-16T14:35:46.798Z,3.43
2019-02-16T14:38:27.364Z,3.60
2019-02-16T14:41:04.762Z,4.10
2019-02-16T14:43:40.567Z,4.10
2019-02-16T14:46:16.033Z,3.87
2019-02-16T14:48:51.242Z,4.07
2019-02-16T14:51:26.550Z,4.80
2019-02-16T14:54:01.964Z,3.17
2019-02-16T14:56:38.734Z,3.97
2019-02-16T14:59:13.820Z,3.30
2019-02-16T15:01:49.424Z,4.00
2019-02-16T15:04:25.083Z,5.07
2019-02-16T15:07:00.517Z,3.50
2019-02-16T15:09:35.269Z,4.60
2019-02-16T15:12:11.552Z,3.90
2019-02-16T15:14:47.713Z,9.07
2019-02-16T15:17:24.495Z,4.40
2019-02-16T15:19:59.347Z,4.20
2019-02-16T15:22:34.791Z,3.23
2019-02-16T15:25:12.052Z,3.60
2019-02-16T15:27:48.192Z,3.57
2019-02-16T15:30:23.583Z,4.23
2019-02-16T15:32:58.981Z,4.07
2019-02-16T15:35:34.185Z,6.93
2019-02-16T15:38:09.318Z,4.17
2019-02-16T15:40:44.555Z,4.10
2019-02-16T15:43:19.655Z,4.63
2019-02-16T15:45:55.771Z,4.00
2019-02-16T15:48:30.979Z,3.93
2019-02-16T15:51:06.095Z,5.87
2019-02-16T15:53:44.482Z,5.00
2019-02-16T15:56:19.286Z,4.30
2019-02-16T15:58:57.956Z,4.10
2019-02-16T16:01:33.172Z,4.43
2019-02-16T16:04:08.266Z,3.93
2019-02-16T16:06:43.845Z,3.87
2019-02-16T16:09:23.261Z,4.37
2019-02-16T16:12:00.906Z,6.23
2019-02-16T16:14:40.624Z,4.40
2019-02-16T16:17:27.665Z,4.40
2019-02-16T16:20:07.078Z,4.53
2019-02-16T16:22:57.956Z,4.63
2019-02-16T16:25:35.831Z,5.07
2019-02-16T16:28:16.690Z,4.20
2019-02-16T16:31:11.587Z,4.37
2019-02-16T16:34:06.361Z,3.87
2019-02-16T16:36:45.915Z,4.27
2019-02-16T16:39:22.727Z,4.87
2019-02-16T16:42:17.871Z,4.93
2019-02-16T16:45:11.100Z,6.37
2019-02-16T16:47:47.833Z,6.90
2019-02-16T16:50:38.064Z,10.03
2019-02-16T16:53:31.033Z,13.77
2019-02-16T16:56:14.317Z,8.50
2019-02-16T16:59:08.599Z,8.03
2019-02-16T17:01:57.216Z,8.27
2019-02-16T17:04:43.468Z,9.00
2019-02-16T17:07:27.282Z,9.73
2019-02-16T17:10:06.835Z,8.43
2019-02-16T17:12:43.622Z,8.77
2019-02-16T17:15:31.851Z,7.10
2019-02-16T17:18:28.130Z,10.00
2019-02-16T17:21:12.036Z,8.37
2019-02-16T17:23:52.151Z,8.50
2019-02-16T17:26:37.778Z,5.80
2019-02-16T17:29:13.840Z,6.70
2019-02-16T17:31:50.891Z,7.87
2019-02-16T17:34:37.286Z,6.87
2019-02-16T17:37:20.871Z,8.47
2019-02-16T17:40:00.419Z,8.30
2019-02-16T17:42:58.036Z,10.20
2019-02-16T17:45:41.655Z,10.37
2019-02-16T17:48:21.271Z,9.50
2019-02-16T17:51:01.106Z,12.30
2019-02-16T17:53:48.411Z,9.07
2019-02-16T17:56:25.234Z,10.20
2019-02-16T17:59:02.699Z,8.57
2019-02-16T18:01:39.465Z,8.77
2019-02-16T18:04:26.018Z,8.20
2019-02-16T18:07:09.028Z,9.10
2019-02-16T18:09:52.306Z,8.77
2019-02-16T18:12:31.920Z,8.17
2019-02-16T18:15:20.017Z,8.00
2019-02-16T18:17:57.956Z,9.23
2019-02-16T18:20:34.849Z,9.87
2019-02-16T18:23:20.790Z,15.23
2019-02-16T18:26:01.334Z,8.43
2019-02-16T18:28:38.372Z,12.83
2019-02-16T18:31:32.596Z,9.10
2019-02-16T18:34:19.550Z,10.33
2019-02-16T18:37:03.219Z,13.93
2019-02-16T18:39:56.518Z,8.60
2019-02-16T18:42:49.529Z,10.30
2019-02-16T18:45:39.423Z,14.47
2019-02-16T18:48:22.816Z,12.87
2019-02-16T18:51:06.815Z,11.77
2019-02-16T18:54:00.042Z,10.57
2019-02-16T18:57:06.108Z,20.43
2019-02-16T18:59:39.411Z,20.60
2019-02-16T19:02:22.036Z,20.60
2019-02-16T19:05:09.534Z,11.80
2019-02-16T19:07:47.914Z,11.57
2019-02-16T19:10:25.996Z,14.33
2019-02-16T19:13:03.041Z,13.17
2019-02-16T19:15:46.799Z,16.77
2019-02-16T19:18:36.409Z,20.03
2019-02-16T19:21:19.603Z,16.53
2019-02-16T19:24:02.962Z,18.33
2019-02-16T19:26:57.340Z,28.00
2019-02-16T19:29:37.127Z,13.80
2019-02-16T19:32:14.164Z,12.43
2019-02-16T19:35:08.662Z,12.23
2019-02-16T19:37:55.777Z,10.33
2019-02-16T19:40:35.904Z,12.60
2019-02-16T19:43:15.484Z,17.17
2019-02-16T19:45:59.716Z,13.97
2019-02-16T19:48:39.752Z,11.87
2019-02-16T19:51:19.207Z,12.50
2019-02-16T19:53:56.183Z,12.57
2019-02-16T19:56:39.802Z,16.87
2019-02-16T19:59:36.147Z,15.40
2019-02-16T20:02:15.327Z,15.43
2019-02-16T20:04:54.982Z,11.40
2019-02-16T20:07:41.484Z,11.27
2019-02-16T20:10:24.601Z,17.20
2019-02-16T20:13:11.348Z,13.03
2019-02-16T20:15:58.711Z,11.53
2019-02-16T20:18:35.783Z,11.43
2019-02-16T20:21:32.140Z,9.97
2019-02-16T20:24:25.588Z,9.97
2019-02-16T20:27:23.354Z,10.17
2019-02-16T20:30:00.432Z,11.37
2019-02-16T20:32:54.873Z,12.57
2019-02-16T20:35:34.704Z,12.30
2019-02-16T20:38:14.421Z,11.63
2019-02-16T20:41:01.235Z,14.50
2019-02-16T20:43:57.421Z,12.63
2019-02-16T20:46:34.760Z,12.93
2019-02-16T20:49:19.783Z,9.37
2019-02-16T20:51:56.520Z,11.93
2019-02-16T20:54:36.320Z,9.13
2019-02-16T20:57:19.941Z,8.90
2019-02-16T21:00:08.196Z,8.20
2019-02-16T21:02:55.039Z,8.40
2019-02-16T21:05:35.632Z,9.80
2019-02-16T21:08:32.369Z,14.77
2019-02-16T21:11:09.055Z,14.67
2019-02-16T21:13:56.154Z,15.37
2019-02-16T21:16:39.777Z,13.30
2019-02-16T21:19:19.714Z,12.03
2019-02-16T21:22:09.126Z,12.77
2019-02-16T21:24:47.335Z,12.40
2019-02-16T21:27:31.127Z,13.43
2019-02-16T21:30:31.474Z,13.83
2019-02-16T21:33:14.854Z,15.67
2019-02-16T21:36:01.305Z,15.57
2019-02-16T21:38:45.234Z,14.77
2019-02-16T21:41:28.804Z,20.83
2019-02-16T21:44:13.773Z,15.63
2019-02-16T21:47:03.281Z,17.13
2019-02-16T21:49:39.989Z,32.93
2019-02-16T21:52:23.948Z,25.53
2019-02-16T21:59:52.554Z,14.43
2019-02-16T22:06:04.581Z,16.83
2019-02-16T22:09:00.881Z,13.33
2019-02-16T22:11:39.552Z,15.53
2019-02-16T22:14:14.702Z,13.87
2019-02-16T22:16:49.821Z,13.90
2019-02-16T22:19:25.885Z,15.37
2019-02-16T22:22:00.987Z,14.43
2019-02-16T22:24:36.158Z,16.57
2019-02-16T22:27:11.681Z,11.93
2019-02-16T22:29:46.905Z,14.03
2019-02-16T22:32:22.375Z,12.50
2019-02-16T22:34:57.433Z,16.67
2019-02-16T22:37:32.589Z,16.30
2019-02-16T22:40:10.091Z,18.10
2019-02-16T22:42:45.149Z,16.97
2019-02-16T22:45:20.762Z,17.17
2019-02-16T22:47:58.126Z,16.93
2019-02-16T22:50:33.602Z,15.70
2019-02-16T22:53:08.693Z,16.07
2019-02-16T22:55:45.078Z,15.83
2019-02-16T22:58:28.543Z,17.93
2019-02-16T23:00:59.067Z,18.13
2019-02-16T23:03:35.749Z,16.80
2019-02-16T23:06:10.579Z,15.77
2019-02-16T23:08:45.486Z,15.00
2019-02-16T23:11:21.622Z,15.73
2019-02-16T23:13:57.696Z,17.20
2019-02-16T23:16:32.829Z,15.73
2019-02-16T23:19:08.282Z,16.23
2019-02-16T23:21:43.710Z,15.43
2019-02-16T23:24:21.765Z,15.53
2019-02-16T23:26:58.247Z,16.43
2019-02-16T23:29:34.387Z,16.53
2019-02-16T23:32:10.189Z,16.87
2019-02-16T23:34:45.265Z,15.87
2019-02-16T23:37:22.629Z,16.37
2019-02-16T23:39:57.657Z,16.00
2019-02-16T23:42:33.865Z,15.10
2019-02-16T23:45:10.220Z,14.60
2019-02-16T23:47:45.531Z,14.67
2019-02-16T23:50:20.850Z,14.57
2019-02-16T23:52:55.940Z,15.43
2019-02-16T23:55:31.266Z,13.20
2019-02-16T23:58:06.322Z,15.03
